Time;durP1;ratioP1;P1;durP2;ratioP2;P2;SDS_P1;SDS_P2;PMS_P1;PMS_P2;Temp;Humidity;BMP_temperature;BMP_pressure;BME280_temperature;BME280_humidity;BME280_pressure;Samples;Min_cycle;Max_cycle;Signal;HPM_P1;HPM_P2
2023/08/01 00:00:40;;;;;;;5.70;2.10;;;;;;;20.06;64.53;99776.34;5037765;28;20237;-69
2023/08/01 00:03:08;;;;;;;3.40;2.53;;;;;;;20.05;64.70;99787.47;5038583;28;20303;-70
2023/08/01 00:05:34;;;;;;;4.20;2.43;;;;;;;19.88;65.80;99778.53;5016826;28;20206;-71
2023/08/01 00:08:02;;;;;;;6.20;2.63;;;;;;;19.89;66.92;99779.28;5036301;28;20229;-70
2023/08/01 00:10:28;;;;;;;4.27;2.77;;;;;;;19.82;68.15;99771.38;5039166;28;20235;-69
2023/08/01 00:12:55;;;;;;;5.10;2.47;;;;;;;19.62;68.40;99765.16;5033815;28;20223;-69
2023/08/01 00:15:21;;;;;;;5.17;2.60;;;;;;;19.63;68.16;99758.63;5036188;28;20210;-69
2023/08/01 00:17:47;;;;;;;4.40;2.43;;;;;;;19.54;68.92;99756.47;5038291;28;20672;-70
2023/08/01 00:20:15;;;;;;;3.27;2.50;;;;;;;19.47;68.75;99751.22;5043085;28;20230;-70
2023/08/01 00:22:41;;;;;;;4.20;2.47;;;;;;;19.36;70.39;99744.50;5039475;28;20203;-70
2023/08/01 00:25:08;;;;;;;3.70;2.20;;;;;;;19.35;69.46;99748.34;5039298;28;20680;-70
2023/08/01 00:27:34;;;;;;;5.60;2.60;;;;;;;19.29;70.67;99748.03;5037251;28;20230;-70
2023/08/01 00:30:01;;;;;;;5.30;2.77;;;;;;;19.21;71.10;99741.28;5041909;28;20227;-70
2023/08/01 00:32:27;;;;;;;4.70;2.87;;;;;;;19.18;70.30;99730.56;5019819;28;20199;-70
2023/08/01 00:34:54;;;;;;;4.67;2.83;;;;;;;19.13;71.61;99713.03;5038411;28;20222;-70
2023/08/01 00:37:21;;;;;;;6.40;3.20;;;;;;;19.08;71.42;99716.16;5041438;28;22066;-69
2023/08/01 00:39:48;;;;;;;6.60;3.20;;;;;;;19.04;70.98;99712.78;5039465;28;20231;-70
2023/08/01 00:42:14;;;;;;;4.87;2.43;;;;;;;19.02;71.76;99703.63;5037371;28;20203;-70
2023/08/01 00:44:40;;;;;;;4.20;2.90;;;;;;;18.99;71.44;99693.75;5038923;28;20219;-70
2023/08/01 00:47:07;;;;;;;6.63;3.13;;;;;;;18.97;72.03;99693.38;5040143;28;20238;-70
2023/08/01 00:49:33;;;;;;;4.57;2.60;;;;;;;18.94;71.92;99694.94;5036814;28;20601;-71
2023/08/01 00:52:00;;;;;;;7.20;2.77;;;;;;;18.92;71.84;99681.22;5019023;28;20203;-69
2023/08/01 00:54:30;;;;;;;3.67;2.80;;;;;;;18.89;72.40;99681.25;5038053;28;20562;-70
2023/08/01 00:56:56;;;;;;;6.83;3.33;;;;;;;18.84;73.13;99671.75;5037292;28;20563;-69
2023/08/01 00:59:23;;;;;;;5.63;3.00;;;;;;;18.81;72.98;99666.44;5037387;28;20214;-70
2023/08/01 01:01:49;;;;;;;6.43;2.97;;;;;;;18.79;73.59;99664.16;5016864;28;20207;-71
2023/08/01 01:04:15;;;;;;;4.27;2.53;;;;;;;18.76;73.74;99667.66;5017584;28;20674;-70
2023/08/01 01:06:47;;;;;;;8.20;3.40;;;;;;;18.72;73.69;99664.28;5018189;28;20227;-71
2023/08/01 01:09:17;;;;;;;5.13;3.03;;;;;;;18.71;73.91;99652.06;5038165;28;20493;-71
2023/08/01 01:11:45;;;;;;;5.20;3.00;;;;;;;18.68;73.71;99655.53;5037789;28;20582;-71
2023/08/01 01:14:12;;;;;;;4.70;2.97;;;;;;;18.66;74.41;99651.75;5018384;28;20199;-71
2023/08/01 01:16:38;;;;;;;7.27;3.20;;;;;;;18.62;74.50;99648.38;5016292;28;20199;-70
2023/08/01 01:19:07;;;;;;;6.50;3.13;;;;;;;18.62;74.41;99643.03;5037309;28;20486;-70
2023/08/01 01:21:36;;;;;;;7.03;3.20;;;;;;;18.59;75.15;99636.56;5031630;28;20199;-71
2023/08/01 01:24:04;;;;;;;6.83;3.67;;;;;;;18.55;75.35;99635.84;5018238;28;20211;-71
2023/08/01 01:26:32;;;;;;;6.00;3.30;;;;;;;18.53;75.30;99632.06;5036332;28;20218;-70
2023/08/01 01:28:59;;;;;;;4.90;3.50;;;;;;;18.48;74.45;99617.19;5034959;28;20223;-70
2023/08/01 01:31:26;;;;;;;6.37;3.00;;;;;;;18.48;75.73;99622.53;5035426;28;20203;-71
2023/08/01 01:33:53;;;;;;;6.03;3.60;;;;;;;18.47;75.48;99623.72;5030821;28;20206;-70
2023/08/01 01:36:19;;;;;;;5.17;3.60;;;;;;;18.46;76.18;99610.72;5038744;28;20209;-69
2023/08/01 01:38:47;;;;;;;3.97;2.80;;;;;;;18.43;76.22;99601.59;5030206;28;20314;-71
2023/08/01 01:41:14;;;;;;;5.23;3.07;;;;;;;18.42;76.48;99599.34;5018316;28;20693;-70
2023/08/01 01:43:40;;;;;;;5.67;3.43;;;;;;;18.39;75.98;99592.88;5037460;28;20210;-71
2023/08/01 01:46:07;;;;;;;4.37;3.40;;;;;;;18.38;75.81;99580.66;5038505;28;20229;-71
2023/08/01 01:48:33;;;;;;;8.23;3.00;;;;;;;18.38;76.33;99585.25;5037428;28;20234;-71
2023/08/01 01:51:00;;;;;;;5.53;3.30;;;;;;;18.38;76.60;99582.59;5019740;28;20199;-71
2023/08/01 01:53:26;;;;;;;4.47;3.07;;;;;;;18.37;77.02;99578.41;5032277;28;20199;-71
2023/08/01 01:55:54;;;;;;;5.87;3.30;;;;;;;18.33;76.18;99569.66;5023939;28;20211;-70
2023/08/01 01:58:21;;;;;;;6.77;3.60;;;;;;;18.34;76.60;99560.50;5036870;28;20207;-71
2023/08/01 02:00:49;;;;;;;4.83;3.27;;;;;;;18.33;76.75;99550.97;5019638;28;20211;-71
2023/08/01 02:03:15;;;;;;;6.47;3.43;;;;;;;18.33;76.42;99550.97;5020185;28;20212;-71
2023/08/01 02:05:42;;;;;;;7.93;3.30;;;;;;;18.28;77.03;99540.69;5034894;28;20207;-71
2023/08/01 02:08:08;;;;;;;5.47;3.00;;;;;;;18.25;77.00;99531.56;5015388;28;20219;-71
2023/08/01 02:10:35;;;;;;;5.87;3.40;;;;;;;18.26;76.50;99529.66;5020686;28;20869;-71
2023/08/01 02:13:02;;;;;;;11.33;3.70;;;;;;;18.25;77.13;99531.56;5034668;28;20479;-71
2023/08/01 02:15:29;;;;;;;4.23;3.03;;;;;;;18.24;77.19;99531.94;5019830;28;20207;-71
2023/08/01 02:17:56;;;;;;;10.00;3.33;;;;;;;18.22;77.55;99542.28;5037536;28;20227;-71
2023/08/01 02:20:22;;;;;;;5.87;3.10;;;;;;;18.21;77.47;99530.84;5020923;28;20590;-71
2023/08/01 02:22:49;;;;;;;5.07;3.30;;;;;;;18.23;77.14;99533.88;5020171;28;20208;-71
2023/08/01 02:25:15;;;;;;;6.77;3.00;;;;;;;18.21;77.27;99538.84;5020765;28;20671;-71
2023/08/01 02:27:41;;;;;;;7.00;3.20;;;;;;;18.22;77.85;99532.34;5019108;28;20231;-71
2023/08/01 02:30:11;;;;;;;6.53;3.40;;;;;;;18.21;77.51;99530.09;5037261;28;20231;-71
2023/08/01 02:32:37;;;;;;;4.43;3.20;;;;;;;18.18;78.06;99526.31;5034711;28;20211;-71
2023/08/01 02:35:04;;;;;;;5.70;3.40;;;;;;;18.17;77.66;99524.03;5036470;28;20210;-71
2023/08/01 02:37:30;;;;;;;8.93;3.47;;;;;;;18.14;78.28;99520.25;5019138;28;20199;-71
2023/08/01 02:39:57;;;;;;;6.40;3.07;;;;;;;18.16;77.78;99514.50;5036402;28;20234;-71
2023/08/01 02:42:23;;;;;;;5.53;3.07;;;;;;;18.14;78.27;99506.88;5017433;28;20235;-71
2023/08/01 02:44:49;;;;;;;5.07;2.90;;;;;;;18.16;77.76;99506.50;5019229;28;20207;-71
2023/08/01 02:47:17;;;;;;;5.63;3.13;;;;;;;18.12;78.56;99506.50;5020591;28;20702;-71
2023/08/01 02:49:44;;;;;;;7.73;3.20;;;;;;;18.12;78.66;99509.19;5033546;28;20235;-71
2023/08/01 02:52:10;;;;;;;4.67;2.80;;;;;;;18.08;77.58;99491.69;5018102;28;20207;-71
2023/08/01 02:54:36;;;;;;;5.20;2.80;;;;;;;18.09;78.33;99485.97;5034568;28;20223;-70
2023/08/01 02:57:03;;;;;;;5.60;3.23;;;;;;;18.03;78.86;99484.13;5019777;28;20207;-70
2023/08/01 02:59:32;;;;;;;7.33;3.73;;;;;;;18.04;78.61;99478.38;5035520;28;20215;-70
2023/08/01 03:02:00;;;;;;;5.67;3.33;;;;;;;18.04;78.43;99475.72;5037506;28;20677;-70
2023/08/01 03:04:27;;;;;;;5.50;3.10;;;;;;;18.03;78.40;99479.56;5038644;28;20199;-71
2023/08/01 03:06:54;;;;;;;5.77;3.10;;;;;;;18.04;78.41;99472.28;5016316;28;20217;-71
2023/08/01 03:09:20;;;;;;;6.77;3.60;;;;;;;17.99;78.82;99470.06;5036695;28;20223;-70
2023/08/01 03:11:46;;;;;;;7.80;3.50;;;;;;;17.98;78.59;99465.88;5035799;28;20206;-71
2023/08/01 03:14:13;;;;;;;5.67;3.67;;;;;;;17.98;78.59;99461.28;5029550;28;20200;-70
2023/08/01 03:16:39;;;;;;;8.17;3.40;;;;;;;17.97;78.63;99461.69;5019693;28;21894;-70
2023/08/01 03:19:05;;;;;;;4.77;3.40;;;;;;;17.98;78.42;99449.84;5037161;28;20242;-71
2023/08/01 03:21:34;;;;;;;5.40;3.47;;;;;;;17.95;78.68;99451.41;5015712;28;20447;-69
2023/08/01 03:24:01;;;;;;;6.50;3.30;;;;;;;17.95;78.71;99456.00;5033408;28;20203;-70
2023/08/01 03:26:29;;;;;;;5.50;3.40;;;;;;;17.93;79.04;99450.28;5017074;28;20203;-71
2023/08/01 03:28:56;;;;;;;4.67;3.27;;;;;;;17.92;78.99;99454.13;5016222;28;20226;-70
2023/08/01 03:31:22;;;;;;;7.30;2.97;;;;;;;17.94;79.29;99449.13;5038013;28;20238;-70
2023/08/01 03:33:48;;;;;;;5.47;3.07;;;;;;;17.92;78.93;99448.78;5038079;28;20214;-70
2023/08/01 03:36:15;;;;;;;4.50;3.07;;;;;;;17.91;79.33;99441.94;5040879;28;20588;-70
2023/08/01 03:38:43;;;;;;;5.77;3.00;;;;;;;17.90;79.30;99441.16;5036701;28;20227;-71
2023/08/01 03:41:09;;;;;;;5.23;3.50;;;;;;;17.91;79.43;99429.31;5040013;28;20210;-71
2023/08/01 03:43:36;;;;;;;6.07;3.13;;;;;;;17.93;79.01;99432.34;5038634;28;20221;-70
2023/08/01 03:46:02;;;;;;;3.77;3.03;;;;;;;17.93;79.23;99419.00;5034194;28;20240;-71
2023/08/01 03:48:29;;;;;;;6.70;3.30;;;;;;;17.92;79.44;99420.16;5021469;28;20223;-71
2023/08/01 03:50:55;;;;;;;4.63;3.33;;;;;;;17.94;79.19;99414.41;5036359;28;20874;-70
2023/08/01 03:53:21;;;;;;;5.00;2.93;;;;;;;17.92;79.37;99420.16;5036774;28;20298;-71
2023/08/01 03:55:49;;;;;;;5.93;3.13;;;;;;;17.94;79.21;99422.41;5037306;28;20211;-70
2023/08/01 03:58:16;;;;;;;7.00;3.43;;;;;;;17.94;79.19;99407.16;5033361;28;20210;-70
2023/08/01 04:00:42;;;;;;;8.13;4.27;;;;;;;17.94;79.21;99415.16;5021710;28;20583;-70
2023/08/01 04:03:08;;;;;;;4.27;3.30;;;;;;;17.95;79.00;99405.25;5039503;28;20234;-70
2023/08/01 04:05:35;;;;;;;4.90;2.70;;;;;;;17.93;79.25;99408.31;5020486;28;20222;-71
2023/08/01 04:08:01;;;;;;;5.00;3.20;;;;;;;17.97;79.38;99410.94;5037541;28;20223;-70
2023/08/01 04:10:27;;;;;;;4.57;2.93;;;;;;;17.97;79.13;99403.69;5041624;28;20223;-70
2023/08/01 04:12:55;;;;;;;4.80;3.13;;;;;;;17.96;79.32;99406.75;5036449;28;20216;-70
2023/08/01 04:15:21;;;;;;;3.13;2.67;;;;;;;17.97;79.59;99410.94;5034545;28;20222;-71
2023/08/01 04:17:48;;;;;;;5.17;3.00;;;;;;;17.98;79.51;99412.44;5039254;28;20210;-70
2023/08/01 04:20:14;;;;;;;4.50;2.93;;;;;;;17.95;79.78;99400.66;5037480;28;20234;-70
2023/08/01 04:22:40;;;;;;;4.53;3.13;;;;;;;17.97;79.87;99402.94;5036677;28;20917;-71
2023/08/01 04:25:08;;;;;;;4.77;3.10;;;;;;;17.98;79.42;99407.09;5036509;28;20350;-70
2023/08/01 04:27:35;;;;;;;5.07;3.20;;;;;;;18.00;79.65;99399.47;5035982;28;20230;-70
2023/08/01 04:30:02;;;;;;;4.17;3.17;;;;;;;17.99;80.06;99400.59;5036717;28;20223;-70
2023/08/01 04:32:29;;;;;;;4.70;3.17;;;;;;;18.01;79.76;99401.72;5012633;28;20237;-70
2023/08/01 04:34:55;;;;;;;4.97;3.37;;;;;;;18.04;79.89;99386.78;5038672;28;20213;-70
2023/08/01 04:37:22;;;;;;;6.03;3.20;;;;;;;18.06;80.09;99384.50;5036318;28;20286;-70
2023/08/01 04:39:49;;;;;;;6.03;3.07;;;;;;;18.06;80.09;99382.56;5038016;28;20370;-70
2023/08/01 04:42:15;;;;;;;4.27;2.80;;;;;;;18.10;80.02;99377.94;5022950;28;20748;-70
2023/08/01 04:44:42;;;;;;;4.23;2.70;;;;;;;18.07;80.02;99375.31;5036477;28;20313;-71
2023/08/01 04:47:09;;;;;;;4.37;2.90;;;;;;;18.09;80.14;99381.00;5039181;28;20203;-70
2023/08/01 04:49:36;;;;;;;5.87;2.80;;;;;;;18.11;79.92;99373.34;5039381;28;20234;-70
2023/08/01 04:52:02;;;;;;;5.07;3.20;;;;;;;18.07;80.03;99365.38;5039920;28;20198;-69
2023/08/01 04:54:29;;;;;;;5.00;3.00;;;;;;;18.10;79.99;99364.56;5020738;28;20219;-73
2023/08/01 04:56:55;;;;;;;4.27;3.00;;;;;;;18.09;80.26;99359.63;5038104;28;20211;-72
2023/08/01 04:59:21;;;;;;;4.33;2.80;;;;;;;18.11;80.00;99357.31;5039213;28;20223;-73
2023/08/01 05:01:48;;;;;;;4.40;2.70;;;;;;;18.13;80.55;99357.66;5037970;28;20277;-73
2023/08/01 05:04:15;;;;;;;3.47;2.73;;;;;;;18.13;80.21;99352.31;5030319;28;20290;-72
2023/08/01 05:06:42;;;;;;;4.60;2.83;;;;;;;18.15;80.69;99349.97;5035153;28;20195;-72
2023/08/01 05:09:08;;;;;;;4.63;2.90;;;;;;;18.16;80.50;99349.59;5035582;28;20219;-72
2023/08/01 05:11:34;;;;;;;5.03;3.17;;;;;;;18.19;80.62;99345.34;5032249;28;20207;-72
2023/08/01 05:14:01;;;;;;;4.37;2.87;;;;;;;18.21;80.67;99345.72;5037802;28;20226;-73
2023/08/01 05:16:27;;;;;;;4.17;3.00;;;;;;;18.21;80.62;99338.44;5041903;28;20543;-72
2023/08/01 05:18:53;;;;;;;4.30;3.40;;;;;;;18.22;80.39;99344.56;5039374;28;20317;-73
2023/08/01 05:21:21;;;;;;;3.83;2.70;;;;;;;18.25;80.39;99339.16;5042111;28;20222;-72
2023/08/01 05:23:47;;;;;;;6.00;3.20;;;;;;;18.28;80.59;99329.56;5036458;28;20195;-72
2023/08/01 05:26:13;;;;;;;5.87;2.90;;;;;;;18.31;80.34;99326.09;5040090;28;20922;-72
2023/08/01 05:28:40;;;;;;;3.00;2.70;;;;;;;18.31;80.46;99326.81;5036825;28;20747;-73
2023/08/01 05:31:06;;;;;;;6.43;2.77;;;;;;;18.35;80.38;99321.44;5039187;28;20715;-73
2023/08/01 05:33:32;;;;;;;3.33;2.50;;;;;;;18.35;80.32;99318.78;5040592;28;20594;-72
2023/08/01 05:35:59;;;;;;;3.83;2.97;;;;;;;18.38;80.08;99321.38;5040576;28;20218;-72
2023/08/01 05:38:26;;;;;;;5.13;2.93;;;;;;;18.44;80.52;99314.44;5042073;28;20230;-72
2023/08/01 05:40:53;;;;;;;5.57;2.97;;;;;;;18.47;80.66;99318.22;5034727;28;20242;-73
2023/08/01 05:43:19;;;;;;;5.63;2.70;;;;;;;18.49;80.77;99316.63;5040026;28;20212;-72
2023/08/01 05:45:45;;;;;;;5.17;2.93;;;;;;;18.49;80.31;99310.53;5037921;28;20628;-73
2023/08/01 05:48:13;;;;;;;6.30;3.47;;;;;;;18.52;79.94;99309.72;5039904;28;20215;-73
2023/08/01 05:50:39;;;;;;;4.60;3.13;;;;;;;18.54;80.01;99302.81;5038560;28;20597;-73
2023/08/01 05:53:07;;;;;;;3.87;2.30;;;;;;;18.55;80.08;99300.88;5037799;28;20585;-73
2023/08/01 05:55:35;;;;;;;3.20;2.60;;;;;;;18.56;80.18;99299.69;5041605;28;20673;-72
2023/08/01 05:58:01;;;;;;;5.73;2.83;;;;;;;18.59;80.11;99293.53;5039469;28;20203;-73
2023/08/01 06:00:28;;;;;;;4.40;2.73;;;;;;;18.62;79.92;99300.75;5040149;28;20798;-73
2023/08/01 06:02:54;;;;;;;4.73;2.83;;;;;;;18.62;79.79;99296.16;5034540;28;20214;-72
2023/08/01 06:05:20;;;;;;;5.33;3.13;;;;;;;18.65;79.79;99291.91;5037747;28;21561;-73
2023/08/01 06:07:47;;;;;;;4.27;3.17;;;;;;;18.64;79.89;99288.50;5038868;28;20214;-73
2023/08/01 06:10:13;;;;;;;5.03;3.80;;;;;;;18.66;79.98;99293.41;5040427;28;20223;-72
2023/08/01 06:12:41;;;;;;;5.30;3.50;;;;;;;18.68;79.88;99285.75;5042212;28;20842;-72
2023/08/01 06:15:08;;;;;;;6.67;5.27;;;;;;;18.71;80.27;99282.25;5042456;28;20192;-73
2023/08/01 06:17:34;;;;;;;5.80;4.30;;;;;;;18.74;79.89;99289.44;5041914;28;20639;-72
2023/08/01 06:20:03;;;;;;;3.80;3.30;;;;;;;18.75;79.94;99273.00;5043088;28;20215;-72
2023/08/01 06:22:30;;;;;;;4.03;3.23;;;;;;;18.79;79.80;99270.25;5041063;28;20287;-73
2023/08/01 06:24:56;;;;;;;6.80;3.70;;;;;;;18.78;79.77;99271.44;5039499;28;20207;-72
2023/08/01 06:27:22;;;;;;;4.37;3.33;;;;;;;18.81;79.85;99268.69;5039968;28;20618;-73
2023/08/01 06:29:50;;;;;;;5.07;3.40;;;;;;;18.82;79.76;99274.75;5034780;28;20222;-72
2023/08/01 06:32:16;;;;;;;4.70;3.60;;;;;;;18.83;80.05;99263.66;5035846;28;20199;-72
2023/08/01 06:34:42;;;;;;;6.67;3.00;;;;;;;18.87;79.96;99260.91;5041905;28;20214;-72
2023/08/01 06:37:10;;;;;;;4.67;3.37;;;;;;;18.88;79.77;99262.44;5042279;28;20735;-72
2023/08/01 06:39:36;;;;;;;3.73;3.33;;;;;;;18.91;79.86;99254.34;5040813;28;20234;-72
2023/08/01 06:42:02;;;;;;;7.13;4.53;;;;;;;18.94;79.89;99250.09;5039488;28;20231;-72
2023/08/01 06:44:29;;;;;;;3.93;2.93;;;;;;;18.96;80.03;99255.78;5039447;28;20272;-73
2023/08/01 06:46:56;;;;;;;5.00;4.50;;;;;;;19.00;79.88;99259.13;5042356;28;20677;-73
2023/08/01 06:49:23;;;;;;;12.87;11.20;;;;;;;19.01;79.83;99250.72;5040388;28;20215;-73
2023/08/01 06:51:49;;;;;;;6.57;5.87;;;;;;;19.06;79.71;99250.22;5039332;28;20207;-73
2023/08/01 06:54:15;;;;;;;8.03;7.23;;;;;;;19.10;79.87;99247.47;5040337;28;20203;-73
2023/08/01 06:56:47;;;;;;;5.80;4.80;;;;;;;19.12;79.69;99240.53;5041422;28;20525;-73
2023/08/01 06:59:13;;;;;;;4.50;4.00;;;;;;;19.12;79.70;99245.88;5039307;28;20220;-72
2023/08/01 07:01:40;;;;;;;7.07;4.70;;;;;;;19.15;79.70;99241.63;5040893;28;20425;-73
2023/08/01 07:04:08;;;;;;;5.03;4.03;;;;;;;19.13;79.71;99242.03;5040023;28;20296;-72
2023/08/01 07:06:34;;;;;;;6.97;3.80;;;;;;;19.15;79.52;99237.00;5038888;28;20195;-73
2023/08/01 07:09:00;;;;;;;7.67;4.23;;;;;;;19.17;79.85;99240.06;5040387;28;20231;-72
2023/08/01 07:11:27;;;;;;;4.80;4.10;;;;;;;19.19;79.70;99243.06;5040348;28;20673;-72
2023/08/01 07:13:53;;;;;;;5.03;3.93;;;;;;;19.20;79.88;99241.13;5039846;28;20210;-72
2023/08/01 07:16:19;;;;;;;4.73;3.70;;;;;;;19.20;79.60;99238.47;5040172;28;20222;-72
2023/08/01 07:18:48;;;;;;;4.37;3.50;;;;;;;19.21;79.57;99239.97;5041947;28;20314;-72
2023/08/01 07:21:15;;;;;;;4.87;3.93;;;;;;;19.20;79.54;99239.19;5039637;28;20302;-73
2023/08/01 07:23:42;;;;;;;5.93;4.03;;;;;;;19.17;79.47;99245.41;5036265;28;20211;-72
2023/08/01 07:26:08;;;;;;;4.43;3.50;;;;;;;19.16;79.75;99243.13;5041001;28;20195;-71
2023/08/01 07:28:34;;;;;;;4.30;3.40;;;;;;;19.19;79.74;99242.31;5038161;28;20602;-72
2023/08/01 07:31:05;;;;;;;4.63;3.30;;;;;;;19.17;79.76;99239.28;5041065;28;20210;-72
2023/08/01 07:33:32;;;;;;;4.73;3.40;;;;;;;19.15;79.95;99249.66;5039406;28;20282;-72
2023/08/01 07:35:58;;;;;;;4.30;3.13;;;;;;;19.16;79.57;99243.13;5040321;28;20211;-72
2023/08/01 07:38:27;;;;;;;4.27;3.13;;;;;;;19.13;80.24;99235.91;5039123;28;20616;-73
2023/08/01 07:40:55;;;;;;;4.40;3.13;;;;;;;19.14;80.17;99243.53;5022888;28;20214;-72
2023/08/01 07:43:21;;;;;;;4.43;3.40;;;;;;;19.16;80.30;99235.09;5041465;28;20207;-72
2023/08/01 07:45:50;;;;;;;5.33;3.20;;;;;;;19.18;80.06;99238.09;5040060;28;20211;-72
2023/08/01 07:48:16;;;;;;;3.33;2.90;;;;;;;19.20;80.56;99243.81;5037386;28;20199;-72
2023/08/01 07:50:42;;;;;;;4.00;2.83;;;;;;;19.22;80.48;99239.59;5039678;28;20240;-72
2023/08/01 07:53:09;;;;;;;5.07;3.30;;;;;;;19.25;80.37;99238.00;5042205;28;20203;-73
2023/08/01 07:55:36;;;;;;;3.50;3.03;;;;;;;19.27;80.85;99235.66;5038802;28;20823;-73
2023/08/01 07:58:03;;;;;;;3.77;2.70;;;;;;;19.31;81.04;99236.34;5037299;28;21773;-73
2023/08/01 08:00:29;;;;;;;4.60;2.87;;;;;;;19.32;80.93;99241.28;5040660;28;20227;-72
2023/08/01 08:02:55;;;;;;;3.00;2.70;;;;;;;19.37;80.71;99232.00;5038854;28;20203;-72
2023/08/01 08:05:22;;;;;;;3.40;2.70;;;;;;;19.44;80.86;99229.16;5039621;28;20545;-71
2023/08/01 08:07:48;;;;;;;3.60;2.87;;;;;;;19.48;80.97;99224.47;5040209;28;20539;-71
2023/08/01 08:10:15;;;;;;;5.57;2.63;;;;;;;19.55;80.83;99227.75;5039652;28;20230;-72
2023/08/01 08:12:42;;;;;;;3.60;2.30;;;;;;;19.64;81.03;99219.91;5036949;28;20212;-73
2023/08/01 08:15:09;;;;;;;4.43;2.60;;;;;;;19.71;80.90;99217.03;5041488;28;20684;-73
2023/08/01 08:17:36;;;;;;;3.10;2.60;;;;;;;19.80;80.77;99227.16;5038669;28;20212;-73
2023/08/01 08:20:03;;;;;;;2.80;2.50;;;;;;;19.89;80.81;99221.97;5025846;28;20234;-73
2023/08/01 08:22:29;;;;;;;3.40;2.70;;;;;;;19.97;80.64;99216.03;5039919;28;20195;-73
2023/08/01 08:24:55;;;;;;;2.63;2.43;;;;;;;20.02;80.34;99218.19;5040125;28;20211;-73
2023/08/01 08:27:22;;;;;;;2.40;2.07;;;;;;;20.08;79.90;99221.16;5043785;28;20572;-73
2023/08/01 08:29:50;;;;;;;2.33;2.13;;;;;;;20.19;79.79;99214.34;5039478;28;20597;-73
2023/08/01 08:32:17;;;;;;;2.40;2.13;;;;;;;20.28;79.63;99211.09;5044173;28;20222;-72
2023/08/01 08:34:43;;;;;;;2.73;2.10;;;;;;;20.40;79.96;99207.69;5045389;28;20207;-73
2023/08/01 08:37:09;;;;;;;2.43;2.00;;;;;;;20.52;80.17;99212.34;5045546;28;20198;-73
2023/08/01 08:39:36;;;;;;;2.70;2.07;;;;;;;20.61;79.84;99209.78;5044008;28;20445;-73
2023/08/01 08:42:02;;;;;;;2.30;1.83;;;;;;;20.70;79.19;99208.00;5040199;28;20207;-73
2023/08/01 08:44:30;;;;;;;2.70;1.67;;;;;;;20.80;79.84;99198.88;5040419;28;20245;-73
2023/08/01 08:47:03;;;;;;;1.83;1.70;;;;;;;20.87;79.13;99206.00;5043327;28;20213;-72
2023/08/01 08:49:30;;;;;;;1.30;1.13;;;;;;;20.94;79.16;99213.84;5042193;28;20238;-73
2023/08/01 08:51:57;;;;;;;1.63;1.50;;;;;;;21.06;77.68;99203.16;5042263;28;20204;-73
2023/08/01 08:54:24;;;;;;;3.20;1.30;;;;;;;21.14;77.29;99212.50;5043342;28;20206;-73
2023/08/01 08:56:51;;;;;;;3.33;1.50;;;;;;;21.36;78.08;99207.25;5040663;28;20730;-73
2023/08/01 08:59:17;;;;;;;1.30;1.20;;;;;;;21.57;78.72;99201.22;5042766;28;20596;-73
2023/08/01 09:01:43;;;;;;;2.33;1.10;;;;;;;21.75;78.31;99201.44;5042753;28;20211;-72
2023/08/01 09:04:11;;;;;;;1.40;1.23;;;;;;;21.89;78.49;99196.34;5042327;28;20196;-73
2023/08/01 09:06:45;;;;;;;1.27;1.10;;;;;;;21.99;76.00;99192.56;5039237;28;20211;-73
2023/08/01 09:09:13;;;;;;;1.38;0.90;;;;;;;22.01;74.41;99197.50;5041654;28;20211;-73
2023/08/01 09:11:43;;;;;;;1.73;1.00;;;;;;;22.05;74.52;99190.81;5040990;28;20207;-74
2023/08/01 09:14:10;;;;;;;1.15;1.02;;;;;;;22.05;73.66;99185.44;5043028;28;20571;-73
2023/08/01 09:16:36;;;;;;;1.90;0.77;;;;;;;22.13;73.80;99186.72;5039783;28;20199;-72
2023/08/01 09:19:03;;;;;;;0.82;0.70;;;;;;;22.12;72.05;99184.44;5035721;28;20835;-73
2023/08/01 09:21:34;;;;;;;1.95;1.05;;;;;;;22.19;72.29;99181.53;5041887;28;20207;-73
2023/08/01 09:24:09;;;;;;;0.70;0.70;;;;;;;22.22;72.75;99186.78;5044069;28;20390;-73
2023/08/01 09:26:35;;;;;;;1.08;0.98;;;;;;;22.29;73.66;99175.78;5041621;28;20211;-74
2023/08/01 09:29:01;;;;;;;1.23;0.90;;;;;;;22.38;73.36;99180.47;5040738;28;20223;-73
2023/08/01 09:31:29;;;;;;;0.70;0.70;;;;;;;22.46;73.07;99179.81;5042520;28;20626;-72
2023/08/01 09:33:55;;;;;;;1.23;1.00;;;;;;;22.57;72.82;99176.75;5043959;28;20206;-74
2023/08/01 09:36:22;;;;;;;2.20;0.90;;;;;;;22.62;71.83;99171.53;5042590;28;20644;-72
2023/08/01 09:38:50;;;;;;;1.20;1.10;;;;;;;22.71;71.29;99170.88;5042470;28;20223;-73
2023/08/01 09:41:18;;;;;;;1.00;0.90;;;;;;;22.82;72.63;99168.53;5043824;28;20199;-73
2023/08/01 09:43:46;;;;;;;1.45;1.10;;;;;;;22.85;70.44;99170.31;5038024;28;20550;-73
2023/08/01 09:46:13;;;;;;;1.63;0.93;;;;;;;22.86;69.46;99153.75;5042545;28;20202;-73
2023/08/01 09:48:41;;;;;;;1.05;0.95;;;;;;;22.89;70.40;99155.56;5036262;28;20224;-73
2023/08/01 09:51:08;;;;;;;1.10;1.00;;;;;;;22.92;69.87;99149.28;5041312;28;20784;-73
2023/08/01 09:53:35;;;;;;;0.63;0.63;;;;;;;22.95;68.47;99142.25;5040125;28;20204;-73
2023/08/01 09:56:04;;;;;;;1.50;1.00;;;;;;;22.99;69.04;99149.03;5039971;28;20576;-73
2023/08/01 09:58:33;;;;;;;1.70;0.98;;;;;;;23.04;67.34;99153.84;5038129;28;20238;-73
2023/08/01 10:01:00;;;;;;;0.80;0.80;;;;;;;23.09;67.78;99152.50;5037623;28;21156;-73
2023/08/01 10:03:27;;;;;;;0.90;0.80;;;;;;;23.23;68.05;99159.31;5037085;28;20207;-74
2023/08/01 10:05:55;;;;;;;0.80;0.80;;;;;;;23.38;68.73;99172.53;5040679;28;20584;-73
2023/08/01 10:08:23;;;;;;;0.90;0.80;;;;;;;23.50;68.35;99182.44;5042818;28;20383;-73
2023/08/01 10:10:49;;;;;;;0.80;0.80;;;;;;;23.65;68.16;99182.63;5038455;28;20226;-73
2023/08/01 10:13:18;;;;;;;0.98;0.90;;;;;;;23.80;66.73;99176.22;5040154;28;20207;-73
2023/08/01 10:15:45;;;;;;;1.10;0.93;;;;;;;23.92;66.93;99198.88;5039908;28;22675;-73
2023/08/01 10:18:11;;;;;;;1.02;0.95;;;;;;;23.94;64.33;99201.13;5019126;28;20207;-73
2023/08/01 10:20:38;;;;;;;1.30;0.93;;;;;;;23.91;64.52;99191.22;5041992;28;20217;-73
2023/08/01 10:23:06;;;;;;;2.22;0.88;;;;;;;23.80;62.64;99195.06;5039597;28;20199;-73
2023/08/01 10:25:33;;;;;;;0.82;0.80;;;;;;;23.74;63.98;99196.13;5036838;28;20213;-73
2023/08/01 10:28:00;;;;;;;0.93;0.82;;;;;;;23.55;64.13;99181.84;5023337;28;20211;-73
2023/08/01 10:30:29;;;;;;;1.20;1.10;;;;;;;23.49;64.54;99183.63;5039179;28;20219;-73
2023/08/01 10:32:57;;;;;;;1.20;0.93;;;;;;;23.28;64.37;99181.75;5036083;28;20212;-73
2023/08/01 10:35:33;;;;;;;1.58;1.02;;;;;;;23.31;64.81;99179.41;5041810;28;20218;-74
2023/08/01 10:38:05;;;;;;;1.08;0.88;;;;;;;23.26;64.76;99182.66;5038333;28;20211;-73
2023/08/01 10:40:36;;;;;;;1.38;1.17;;;;;;;23.23;64.94;99182.34;5037781;28;20195;-73
2023/08/01 10:43:02;;;;;;;1.05;0.90;;;;;;;23.33;65.21;99185.84;5042583;28;20203;-73
2023/08/01 10:45:30;;;;;;;1.13;0.80;;;;;;;23.41;64.01;99191.72;5039819;28;20669;-73
2023/08/01 10:48:07;;;;;;;0.95;0.75;;;;;;;23.37;63.60;99205.28;5041154;28;20200;-73
2023/08/01 10:50:33;;;;;;;0.75;0.65;;;;;;;23.39;63.97;99197.53;5038458;28;20633;-73
2023/08/01 10:53:04;;;;;;;1.67;0.65;;;;;;;23.23;63.06;99188.94;5040778;28;20226;-73
2023/08/01 10:55:39;;;;;;;0.50;0.50;;;;;;;23.06;60.85;99191.81;5039933;28;20322;-71
2023/08/01 10:58:05;;;;;;;1.25;0.65;;;;;;;23.11;61.86;99193.19;5035716;28;20206;-71
2023/08/01 11:00:33;;;;;;;0.70;0.70;;;;;;;23.14;62.81;99200.38;5039445;28;20273;-71
2023/08/01 11:03:00;;;;;;;0.95;0.80;;;;;;;23.24;62.50;99199.28;5038904;28;20283;-70
2023/08/01 11:05:28;;;;;;;0.50;0.50;;;;;;;23.29;61.25;99190.59;5039031;28;20711;-71
2023/08/01 11:07:55;;;;;;;0.65;0.50;;;;;;;23.37;61.95;99178.34;5039819;28;20205;-71
2023/08/01 11:10:22;;;;;;;1.20;0.60;;;;;;;23.45;62.53;99176.88;5041110;28;20775;-71
2023/08/01 11:12:49;;;;;;;0.55;0.52;;;;;;;23.53;60.38;99172.69;5040978;28;20689;-71
2023/08/01 11:15:15;;;;;;;0.50;0.50;;;;;;;23.65;61.84;99167.19;5039333;28;20729;-71
2023/08/01 11:17:48;;;;;;;1.70;0.60;;;;;;;23.77;61.39;99179.81;5038806;28;20199;-71
2023/08/01 11:20:15;;;;;;;2.05;0.60;;;;;;;23.80;59.33;99184.28;5040019;28;20296;-71
2023/08/01 11:22:51;;;;;;;0.40;0.40;;;;;;;23.83;61.29;99191.50;5041973;28;20604;-70
2023/08/01 11:25:18;;;;;;;0.65;0.60;;;;;;;23.85;60.62;99182.97;5040390;28;20214;-71
2023/08/01 11:27:44;;;;;;;0.93;0.50;;;;;;;23.74;58.68;99188.03;5038944;28;20211;-71
2023/08/01 11:30:11;;;;;;;1.30;0.60;;;;;;;23.67;58.46;99182.19;5039002;28;20233;-70
2023/08/01 11:32:39;;;;;;;1.65;0.50;;;;;;;23.53;60.04;99183.47;5042804;28;20203;-71